createdAt,value
2023-02-13T00:02:00.333Z,64.49
2023-02-13T00:04:27.279Z,64.21
2023-02-13T00:06:54.059Z,65.31
2023-02-13T00:09:26.782Z,65.21
2023-02-13T00:11:53.537Z,64.93
2023-02-13T00:14:20.513Z,62.62
2023-02-13T00:16:47.292Z,63.41
2023-02-13T00:19:14.041Z,63.83
2023-02-13T00:21:41.287Z,64.91
2023-02-13T00:24:08.158Z,65.01
2023-02-13T00:26:34.930Z,66.64
2023-02-13T00:29:01.834Z,66.37
2023-02-13T00:31:28.852Z,66.59
2023-02-13T00:33:55.849Z,66.20
2023-02-13T00:36:23.301Z,66.01
2023-02-13T00:38:51.172Z,66.71
2023-02-13T00:41:19.790Z,68.12
2023-02-13T00:43:47.307Z,68.90
2023-02-13T00:46:14.294Z,68.41
2023-02-13T00:48:41.368Z,66.35
2023-02-13T00:51:08.974Z,66.34
2023-02-13T00:53:36.132Z,68.08
2023-02-13T00:56:02.984Z,68.17
2023-02-13T00:58:29.833Z,67.15
2023-02-13T01:00:57.908Z,66.00
2023-02-13T01:03:24.965Z,65.89
2023-02-13T01:05:52.240Z,66.68
2023-02-13T01:08:24.132Z,66.96
2023-02-13T01:10:51.076Z,69.13
2023-02-13T01:13:21.041Z,69.13
2023-02-13T01:15:48.582Z,69.18
2023-02-13T01:18:16.739Z,67.92
2023-02-13T01:20:44.263Z,67.92
2023-02-13T01:23:11.800Z,67.79
2023-02-13T01:25:42.423Z,66.79
2023-02-13T01:28:09.381Z,66.25
2023-02-13T01:30:36.235Z,65.98
2023-02-13T01:33:03.186Z,65.85
2023-02-13T01:35:29.938Z,66.92
2023-02-13T01:37:56.779Z,67.67
2023-02-13T01:40:23.894Z,67.71
2023-02-13T01:42:50.677Z,65.43
2023-02-13T01:45:23.763Z,64.36
2023-02-13T01:47:56.573Z,60.25
2023-02-13T01:50:33.508Z,61.21
2023-02-13T01:53:23.365Z,60.89
2023-02-13T01:55:57.214Z,61.68
2023-02-13T01:58:26.094Z,61.40
2023-02-13T02:00:53.226Z,62.23
2023-02-13T02:03:40.371Z,62.29
2023-02-13T02:06:12.878Z,63.56
2023-02-13T02:08:39.799Z,64.95
2023-02-13T02:11:11.547Z,65.87
2023-02-13T02:13:38.454Z,66.18
2023-02-13T02:16:08.914Z,65.23
2023-02-13T02:18:35.716Z,63.51
2023-02-13T02:21:08.813Z,63.44
2023-02-13T02:24:01.874Z,63.81
2023-02-13T02:26:54.338Z,60.66
2023-02-13T02:29:40.055Z,59.97
2023-02-13T02:32:09.889Z,60.56
2023-02-13T02:34:56.685Z,61.78
2023-02-13T02:37:26.676Z,61.25
2023-02-13T02:39:57.555Z,61.40
2023-02-13T02:42:39.686Z,61.09
2023-02-13T02:45:14.050Z,61.73
2023-02-13T02:48:08.724Z,61.11
2023-02-13T02:50:41.622Z,59.77
2023-02-13T02:53:11.442Z,57.79
2023-02-13T02:55:45.947Z,59.90
2023-02-13T02:58:52.537Z,60.40
2023-02-13T03:01:41.566Z,61.60
2023-02-13T03:04:35.143Z,63.45
2023-02-13T03:07:05.416Z,64.54
2023-02-13T03:09:54.506Z,64.73
2023-02-13T03:12:41.911Z,63.45
2023-02-13T03:15:08.889Z,61.46
2023-02-13T03:17:54.567Z,61.21
2023-02-13T03:20:46.321Z,62.06
2023-02-13T03:23:25.546Z,61.75
2023-02-13T03:26:07.344Z,58.68
2023-02-13T03:28:59.199Z,59.77
2023-02-13T03:31:35.268Z,59.51
2023-02-13T03:34:08.238Z,59.38
2023-02-13T03:37:18.267Z,58.63
2023-02-13T03:39:45.049Z,58.23
2023-02-13T03:42:34.984Z,57.93
2023-02-13T03:45:27.520Z,59.48
2023-02-13T03:47:56.794Z,57.72
2023-02-13T03:50:24.634Z,57.47
2023-02-13T03:52:56.994Z,58.25
2023-02-13T03:55:49.081Z,57.34
2023-02-13T03:58:37.094Z,56.23
2023-02-13T04:01:08.103Z,55.79
2023-02-13T04:03:52.836Z,58.25
2023-02-13T04:06:21.885Z,59.05
2023-02-13T04:08:48.708Z,59.26
2023-02-13T04:11:18.242Z,59.76
2023-02-13T04:13:54.219Z,58.89
2023-02-13T04:16:41.354Z,59.32
2023-02-13T04:19:09.596Z,58.37
2023-02-13T04:21:37.591Z,59.14
2023-02-13T04:24:04.772Z,60.76
2023-02-13T04:26:39.218Z,60.63
2023-02-13T04:29:06.107Z,60.58
2023-02-13T04:31:33.064Z,60.61
2023-02-13T04:34:00.039Z,60.35
2023-02-13T04:36:27.099Z,59.90
2023-02-13T04:38:53.997Z,59.59
2023-02-13T04:41:20.902Z,59.38
2023-02-13T04:43:47.732Z,59.39
2023-02-13T04:46:14.652Z,59.56
2023-02-13T04:48:41.642Z,59.41
2023-02-13T04:51:08.530Z,59.46
2023-02-13T04:53:35.396Z,59.82
2023-02-13T04:56:02.244Z,59.73
2023-02-13T04:58:29.067Z,59.56
2023-02-13T05:00:56.355Z,59.06
2023-02-13T05:03:23.378Z,57.92
2023-02-13T05:05:50.370Z,58.11
2023-02-13T05:08:17.378Z,58.55
2023-02-13T05:10:44.317Z,59.02
2023-02-13T05:13:11.697Z,60.10
2023-02-13T05:15:38.631Z,60.35
2023-02-13T05:18:05.490Z,60.34
2023-02-13T05:20:32.486Z,60.35
2023-02-13T05:23:17.750Z,60.34
2023-02-13T05:25:44.607Z,59.33
2023-02-13T05:28:30.159Z,59.38
2023-02-13T05:30:57.674Z,59.19
2023-02-13T05:33:24.929Z,59.04
2023-02-13T05:35:51.918Z,59.37
2023-02-13T05:38:18.778Z,59.59
2023-02-13T05:40:45.800Z,59.44
2023-02-13T05:43:12.634Z,59.08
2023-02-13T05:45:39.594Z,58.22
2023-02-13T05:48:06.446Z,58.29
2023-02-13T05:50:33.346Z,58.35
2023-02-13T05:53:00.236Z,57.87
2023-02-13T05:55:27.189Z,58.39
2023-02-13T05:57:57.928Z,57.98
2023-02-13T06:00:25.347Z,58.22
2023-02-13T06:02:52.323Z,58.39
2023-02-13T06:05:19.132Z,57.90
2023-02-13T06:07:46.049Z,57.41
2023-02-13T06:10:12.860Z,58.97
2023-02-13T06:12:39.843Z,59.21
2023-02-13T06:15:07.024Z,60.32
2023-02-13T06:17:33.850Z,60.49
2023-02-13T06:20:00.644Z,61.15
2023-02-13T06:22:27.522Z,61.08
2023-02-13T06:24:54.442Z,60.95
2023-02-13T06:27:21.328Z,61.07
2023-02-13T06:29:48.386Z,59.53
2023-02-13T06:32:15.404Z,59.67
2023-02-13T06:34:42.114Z,60.50
2023-02-13T06:37:08.942Z,61.01
2023-02-13T06:39:35.842Z,60.40
2023-02-13T06:42:02.764Z,60.94
2023-02-13T06:44:29.572Z,60.08
2023-02-13T06:46:56.573Z,59.31
2023-02-13T06:49:23.485Z,59.35
2023-02-13T06:51:50.259Z,59.80
2023-02-13T06:54:17.134Z,61.30
2023-02-13T06:56:43.894Z,59.75
2023-02-13T06:59:10.785Z,59.48
2023-02-13T07:01:37.548Z,59.52
2023-02-13T07:04:04.500Z,59.63
2023-02-13T07:06:32.467Z,59.13
2023-02-13T07:09:01.357Z,59.31
2023-02-13T07:11:28.250Z,59.58
2023-02-13T07:13:55.026Z,59.70
2023-02-13T07:16:21.935Z,60.27
2023-02-13T07:18:48.736Z,60.95
2023-02-13T07:21:15.611Z,62.80
2023-02-13T07:23:42.500Z,63.55
2023-02-13T07:26:11.242Z,64.73
2023-02-13T07:28:38.092Z,65.09
2023-02-13T07:31:06.282Z,64.41
2023-02-13T07:33:33.602Z,64.65
2023-02-13T07:36:02.998Z,65.90
2023-02-13T07:38:30.677Z,67.46
2023-02-13T07:41:04.405Z,66.15
2023-02-13T07:43:31.267Z,65.30
2023-02-13T07:45:59.176Z,65.97
2023-02-13T07:48:29.428Z,65.48
2023-02-13T07:51:00.448Z,59.86
2023-02-13T07:53:27.318Z,58.37
2023-02-13T07:55:54.077Z,57.11
2023-02-13T07:58:20.967Z,57.61
2023-02-13T08:00:48.072Z,61.37
2023-02-13T08:03:15.198Z,62.29
2023-02-13T08:05:47.777Z,59.03
2023-02-13T08:08:14.614Z,59.77
2023-02-13T08:11:00.254Z,57.79
2023-02-13T08:13:27.393Z,57.74
2023-02-13T08:15:54.130Z,53.09
2023-02-13T08:18:20.963Z,50.09
2023-02-13T08:20:51.003Z,51.82
2023-02-13T08:23:17.954Z,51.62
2023-02-13T08:25:44.847Z,53.42
2023-02-13T08:28:11.781Z,54.51
2023-02-13T08:30:38.635Z,54.46
2023-02-13T08:33:05.600Z,54.22
2023-02-13T08:35:32.472Z,52.63
2023-02-13T08:38:03.554Z,53.00
2023-02-13T08:40:30.856Z,55.38
2023-02-13T08:43:02.043Z,53.19
2023-02-13T08:45:29.366Z,51.58
2023-02-13T08:47:57.152Z,52.53
2023-02-13T08:50:24.073Z,53.77
2023-02-13T08:52:50.988Z,51.57
2023-02-13T08:55:17.880Z,51.25
2023-02-13T08:57:44.777Z,51.88
2023-02-13T09:00:11.782Z,50.64
2023-02-13T09:02:38.704Z,50.94
2023-02-13T09:05:05.677Z,51.80
2023-02-13T09:07:32.665Z,50.35
2023-02-13T09:09:59.445Z,47.79
2023-02-13T09:12:26.269Z,49.60
2023-02-13T09:14:53.262Z,47.03
2023-02-13T09:17:20.246Z,45.62
2023-02-13T09:19:47.461Z,48.90
2023-02-13T09:22:17.243Z,47.13
2023-02-13T09:24:44.171Z,46.37
2023-02-13T09:27:11.048Z,48.26
2023-02-13T09:29:37.962Z,47.83
2023-02-13T09:32:05.248Z,41.12
2023-02-13T09:34:32.113Z,41.73
2023-02-13T09:36:58.957Z,42.73
2023-02-13T09:39:25.999Z,42.01
2023-02-13T09:41:53.914Z,45.27
2023-02-13T09:44:38.886Z,44.59
2023-02-13T09:47:14.759Z,45.21
2023-02-13T09:49:44.372Z,45.38
2023-02-13T09:52:11.368Z,42.99
2023-02-13T09:54:38.459Z,46.81
2023-02-13T09:57:12.787Z,44.39
2023-02-13T09:59:51.722Z,45.64
2023-02-13T10:02:41.740Z,43.22
2023-02-13T10:05:08.603Z,44.96
2023-02-13T10:07:49.982Z,43.37
2023-02-13T10:10:28.552Z,43.49
2023-02-13T10:12:58.446Z,41.95
2023-02-13T10:15:40.427Z,45.27
2023-02-13T10:18:12.445Z,44.35
2023-02-13T10:20:46.046Z,43.84
2023-02-13T10:23:18.937Z,43.47
2023-02-13T10:26:02.475Z,43.80
2023-02-13T10:28:29.412Z,42.08
2023-02-13T10:30:58.823Z,35.44
2023-02-13T10:33:25.799Z,33.88
2023-02-13T10:35:58.751Z,33.03
2023-02-13T10:38:27.954Z,33.29
2023-02-13T10:41:04.491Z,33.52
2023-02-13T10:43:39.053Z,33.91
2023-02-13T10:46:17.030Z,32.14
2023-02-13T10:48:50.070Z,36.18
2023-02-13T10:51:27.586Z,40.23
2023-02-13T10:54:10.641Z,37.30
2023-02-13T10:56:40.502Z,33.13
2023-02-13T10:59:07.344Z,40.81
2023-02-13T11:01:37.144Z,36.45
2023-02-13T11:04:08.516Z,32.18
2023-02-13T11:06:42.568Z,36.07
2023-02-13T11:09:10.012Z,34.25
2023-02-13T11:11:41.150Z,34.13
2023-02-13T11:14:07.917Z,39.40
2023-02-13T11:16:43.104Z,37.96
2023-02-13T11:19:21.406Z,37.96
2023-02-13T11:21:50.292Z,35.05
2023-02-13T11:24:22.785Z,35.57
2023-02-13T11:27:09.587Z,34.22
2023-02-13T11:29:37.730Z,35.56
2023-02-13T11:32:04.638Z,36.41
2023-02-13T11:34:32.588Z,36.79
2023-02-13T11:37:19.593Z,36.41
2023-02-13T11:39:50.160Z,36.41
2023-02-13T11:42:35.725Z,34.58
2023-02-13T11:45:07.255Z,36.15
2023-02-13T11:47:39.391Z,38.73
2023-02-13T11:50:19.447Z,31.31
2023-02-13T11:52:53.924Z,30.06
2023-02-13T11:55:38.516Z,32.98
2023-02-13T11:58:23.945Z,33.80
2023-02-13T12:00:51.187Z,34.16
2023-02-13T12:03:21.344Z,34.31
2023-02-13T12:06:06.176Z,34.96
2023-02-13T12:08:34.569Z,36.20
2023-02-13T12:11:02.772Z,31.45
2023-02-13T12:13:35.775Z,35.50
2023-02-13T12:16:05.717Z,32.15
2023-02-13T12:18:33.727Z,31.87
2023-02-13T12:21:01.425Z,30.16
2023-02-13T12:23:42.306Z,33.08
2023-02-13T12:26:09.159Z,35.60
2023-02-13T12:31:16.930Z,35.69
2023-02-13T12:34:04.075Z,34.05
2023-02-13T12:36:40.216Z,29.93
2023-02-13T12:39:31.802Z,33.34
2023-02-13T12:42:17.237Z,32.10
2023-02-13T12:44:48.741Z,30.45
2023-02-13T12:47:22.212Z,31.90
2023-02-13T12:49:49.020Z,30.85
2023-02-13T12:52:15.865Z,29.51
2023-02-13T12:55:02.860Z,30.88
2023-02-13T12:57:48.588Z,33.71
2023-02-13T13:00:30.696Z,36.22
2023-02-13T13:03:16.084Z,34.62
2023-02-13T13:05:58.749Z,30.01
2023-02-13T13:08:48.641Z,32.28
2023-02-13T13:11:22.889Z,35.92
2023-02-13T13:14:02.602Z,35.48
2023-02-13T13:16:52.278Z,32.85
2023-02-13T13:19:19.043Z,35.02
2023-02-13T13:21:55.604Z,31.94
2023-02-13T13:24:41.023Z,31.53
2023-02-13T13:27:40.117Z,31.56
2023-02-13T13:30:27.556Z,29.90
2023-02-13T13:33:08.685Z,31.39
2023-02-13T13:35:37.033Z,30.36
2023-02-13T13:38:17.531Z,31.24
2023-02-13T13:41:00.537Z,31.96
2023-02-13T13:43:27.729Z,33.04
2023-02-13T13:46:13.550Z,31.64
2023-02-13T13:49:07.054Z,30.93
2023-02-13T13:51:34.590Z,34.16
2023-02-13T13:54:01.726Z,33.42
2023-02-13T13:56:48.824Z,32.88
2023-02-13T13:59:20.208Z,34.63
2023-02-13T14:01:47.179Z,34.88
2023-02-13T14:04:32.193Z,34.44
2023-02-13T14:06:58.961Z,34.10
2023-02-13T14:09:28.931Z,33.79
2023-02-13T14:11:56.916Z,34.45
2023-02-13T14:14:28.089Z,35.36
2023-02-13T14:16:56.116Z,35.44
2023-02-13T14:19:26.352Z,36.10
2023-02-13T14:21:53.937Z,36.20
2023-02-13T14:24:22.618Z,36.55
2023-02-13T14:26:57.882Z,36.60
2023-02-13T14:29:33.223Z,35.96
2023-02-13T14:32:16.457Z,36.31
2023-02-13T14:34:51.377Z,36.78
2023-02-13T14:37:23.265Z,36.77
2023-02-13T14:40:09.233Z,37.22
2023-02-13T14:42:36.359Z,38.75
2023-02-13T14:45:04.940Z,39.64
2023-02-13T14:47:31.858Z,39.13
2023-02-13T14:50:00.124Z,39.06
2023-02-13T14:52:29.254Z,38.38
2023-02-13T14:55:01.248Z,38.27
2023-02-13T14:57:49.568Z,38.43
2023-02-13T15:00:19.199Z,38.58
2023-02-13T15:02:48.211Z,38.75
2023-02-13T15:05:19.992Z,39.44
2023-02-13T15:07:49.256Z,39.61
2023-02-13T15:10:34.604Z,39.42
2023-02-13T15:13:02.204Z,40.46
2023-02-13T15:15:29.001Z,40.16
2023-02-13T15:18:04.885Z,40.69
2023-02-13T15:20:41.047Z,41.03
2023-02-13T15:23:09.701Z,40.90
2023-02-13T15:25:37.978Z,41.00
2023-02-13T15:28:08.870Z,41.43
2023-02-13T15:30:37.199Z,41.60
2023-02-13T15:33:15.777Z,42.08
2023-02-13T15:35:42.781Z,43.81
2023-02-13T15:38:20.082Z,43.74
2023-02-13T15:40:47.668Z,44.65
2023-02-13T15:43:28.046Z,46.25
2023-02-13T15:45:58.334Z,47.86
2023-02-13T15:48:25.217Z,47.68
2023-02-13T15:50:52.206Z,47.62
2023-02-13T15:53:19.219Z,48.26
2023-02-13T15:55:56.386Z,48.74
2023-02-13T15:58:26.299Z,48.35
2023-02-13T16:00:53.232Z,48.30
2023-02-13T16:03:20.714Z,47.22
2023-02-13T16:05:48.055Z,48.70
2023-02-13T16:08:30.261Z,49.01
2023-02-13T16:11:16.017Z,49.36
2023-02-13T16:14:21.806Z,49.85
2023-02-13T16:16:51.060Z,50.11
2023-02-13T16:19:25.594Z,50.16
2023-02-13T16:21:53.473Z,50.39
2023-02-13T16:24:21.415Z,50.96
2023-02-13T16:26:49.046Z,51.29
2023-02-13T16:29:24.221Z,51.75
2023-02-13T16:31:52.295Z,50.73
2023-02-13T16:34:29.596Z,51.36
2023-02-13T16:36:56.953Z,52.04
2023-02-13T16:39:29.057Z,52.40
2023-02-13T16:41:56.610Z,53.26
2023-02-13T16:44:23.535Z,52.68
2023-02-13T16:47:10.609Z,52.74
2023-02-13T16:49:37.853Z,53.83
2023-02-13T16:52:30.727Z,53.32
2023-02-13T16:54:59.546Z,52.73
2023-02-13T16:57:30.691Z,52.98
2023-02-13T16:59:57.531Z,52.77
2023-02-13T17:02:28.650Z,52.88
2023-02-13T17:04:55.575Z,53.66
2023-02-13T17:07:23.753Z,54.29
2023-02-13T17:09:54.856Z,54.50
2023-02-13T17:12:21.983Z,53.98
2023-02-13T17:14:48.806Z,54.67
2023-02-13T17:17:19.017Z,54.81
2023-02-13T17:19:46.131Z,54.71
2023-02-13T17:22:26.269Z,54.08
2023-02-13T17:24:53.352Z,54.13
2023-02-13T17:27:22.534Z,54.41
2023-02-13T17:29:49.668Z,54.33
2023-02-13T17:32:19.231Z,55.04
2023-02-13T17:34:49.219Z,55.00
2023-02-13T17:37:17.734Z,55.69
2023-02-13T17:39:45.520Z,55.32
2023-02-13T17:42:17.510Z,54.86
2023-02-13T17:44:44.494Z,55.21
2023-02-13T17:47:12.285Z,54.89
2023-02-13T17:49:39.202Z,55.60
2023-02-13T17:52:06.274Z,55.88
2023-02-13T17:54:36.197Z,56.07
2023-02-13T17:57:03.151Z,55.39
2023-02-13T17:59:29.983Z,55.97
2023-02-13T18:01:56.983Z,55.93
2023-02-13T18:04:23.868Z,55.98
2023-02-13T18:06:54.194Z,55.42
2023-02-13T18:09:22.017Z,55.79
2023-02-13T18:12:04.593Z,55.01
2023-02-13T18:14:32.915Z,55.79
2023-02-13T18:16:59.719Z,55.38
2023-02-13T18:19:27.401Z,56.46
2023-02-13T18:21:54.325Z,56.45
2023-02-13T18:24:21.273Z,56.26
2023-02-13T18:26:48.204Z,55.68
2023-02-13T18:29:15.058Z,55.19
2023-02-13T18:31:42.001Z,53.62
2023-02-13T18:34:08.969Z,53.67
2023-02-13T18:36:35.788Z,54.48
2023-02-13T18:39:02.848Z,55.71
2023-02-13T18:41:29.847Z,54.96
2023-02-13T18:43:57.976Z,54.52
2023-02-13T18:46:24.906Z,55.14
2023-02-13T18:48:51.792Z,54.88
2023-02-13T18:51:18.910Z,54.93
2023-02-13T18:53:45.809Z,54.25
2023-02-13T18:56:13.102Z,54.53
2023-02-13T18:58:40.063Z,54.81
2023-02-13T19:01:10.902Z,55.50
2023-02-13T19:03:38.390Z,54.29
2023-02-13T19:06:07.950Z,54.06
2023-02-13T19:08:36.082Z,54.85
2023-02-13T19:11:03.801Z,54.59
2023-02-13T19:13:32.119Z,54.19
2023-02-13T19:16:09.739Z,54.56
2023-02-13T19:18:37.328Z,54.66
2023-02-13T19:21:04.843Z,53.86
2023-02-13T19:23:32.006Z,53.76
2023-02-13T19:25:58.907Z,54.88
2023-02-13T19:28:25.781Z,55.22
2023-02-13T19:30:52.778Z,55.45
2023-02-13T19:33:19.708Z,55.52
2023-02-13T19:35:56.345Z,55.90
2023-02-13T19:38:23.208Z,56.27
2023-02-13T19:40:49.947Z,56.17
2023-02-13T19:43:16.786Z,55.78
2023-02-13T19:45:44.800Z,55.25
2023-02-13T19:48:12.086Z,55.75
2023-02-13T19:50:39.473Z,55.85
2023-02-13T19:53:07.816Z,55.65
2023-02-13T19:55:34.806Z,55.93
2023-02-13T19:58:01.578Z,56.21
2023-02-13T20:00:28.365Z,55.82
2023-02-13T20:03:00.815Z,56.45
2023-02-13T20:05:27.619Z,56.10
2023-02-13T20:07:54.412Z,56.56
2023-02-13T20:10:21.270Z,56.54
2023-02-13T20:12:53.828Z,56.08
2023-02-13T20:15:20.925Z,55.79
2023-02-13T20:17:47.761Z,56.14
2023-02-13T20:20:14.733Z,56.18
2023-02-13T20:22:41.555Z,56.07
2023-02-13T20:25:08.477Z,56.85
2023-02-13T20:30:07.290Z,56.68
2023-02-13T20:32:34.455Z,57.01
2023-02-13T20:35:01.284Z,56.97
2023-02-13T20:37:28.162Z,56.96
2023-02-13T20:39:55.010Z,57.20
2023-02-13T20:42:21.874Z,56.66
2023-02-13T20:44:48.839Z,57.38
2023-02-13T20:47:15.788Z,56.81
2023-02-13T20:49:42.530Z,57.22
2023-02-13T20:52:09.390Z,57.42
2023-02-13T20:54:36.994Z,57.12
2023-02-13T20:57:04.064Z,56.13
2023-02-13T20:59:30.984Z,56.63
2023-02-13T21:01:57.734Z,56.09
2023-02-13T21:04:24.673Z,56.20
2023-02-13T21:06:51.535Z,55.67
2023-02-13T21:09:18.461Z,54.93
2023-02-13T21:11:45.464Z,55.15
2023-02-13T21:14:12.865Z,55.78
2023-02-13T21:16:41.331Z,55.07
2023-02-13T21:19:11.310Z,55.15
2023-02-13T21:21:38.514Z,54.88
2023-02-13T21:24:08.201Z,54.76
2023-02-13T21:26:35.615Z,54.24
2023-02-13T21:29:02.412Z,53.33
2023-02-13T21:31:30.978Z,53.88
2023-02-13T21:34:06.441Z,54.41
2023-02-13T21:36:34.146Z,54.07
2023-02-13T21:39:01.387Z,54.09
2023-02-13T21:41:28.444Z,53.83
2023-02-13T21:43:55.279Z,54.06
2023-02-13T21:46:30.840Z,54.19
2023-02-13T21:49:02.023Z,53.66
2023-02-13T21:51:30.256Z,53.82
2023-02-13T21:53:57.477Z,53.73
2023-02-13T21:56:26.506Z,53.24
2023-02-13T21:58:53.474Z,53.71
2023-02-13T22:01:26.991Z,53.86
2023-02-13T22:04:00.323Z,53.59
2023-02-13T22:06:28.504Z,53.43
2023-02-13T22:08:59.682Z,53.58
2023-02-13T22:11:26.932Z,52.53
2023-02-13T22:13:57.669Z,51.85
2023-02-13T22:16:24.797Z,52.46
2023-02-13T22:18:51.880Z,52.73
2023-02-13T22:21:20.057Z,52.70
2023-02-13T22:23:47.737Z,53.38
2023-02-13T22:26:45.384Z,53.15
2023-02-13T22:29:13.596Z,53.17
2023-02-13T22:31:40.834Z,51.59
2023-02-13T22:34:12.046Z,50.95
2023-02-13T22:36:39.159Z,51.06
2023-02-13T22:39:06.631Z,51.05
2023-02-13T22:41:33.652Z,50.59
2023-02-13T22:44:00.534Z,51.07
2023-02-13T22:46:31.486Z,51.16
2023-02-13T22:48:59.515Z,52.06
2023-02-13T22:51:28.628Z,52.62
2023-02-13T22:53:56.383Z,52.86
2023-02-13T22:56:24.509Z,52.54
2023-02-13T22:58:51.353Z,52.29
2023-02-13T23:01:19.409Z,52.00
2023-02-13T23:03:46.418Z,52.39
2023-02-13T23:06:14.156Z,52.31
2023-02-13T23:08:41.279Z,51.17
2023-02-13T23:11:27.824Z,51.19
2023-02-13T23:13:54.724Z,52.33
2023-02-13T23:19:17.453Z,52.14
2023-02-13T23:21:44.456Z,52.15
2023-02-13T23:24:11.396Z,52.28
2023-02-13T23:26:38.825Z,51.70
2023-02-13T23:29:05.812Z,52.18
2023-02-13T23:31:32.687Z,51.85
2023-02-13T23:33:59.492Z,51.86
2023-02-13T23:36:26.409Z,51.28
2023-02-13T23:38:53.273Z,51.30
2023-02-13T23:41:19.976Z,52.11
2023-02-13T23:43:46.832Z,50.76
2023-02-13T23:46:13.793Z,50.54
2023-02-13T23:48:40.611Z,50.51
2023-02-13T23:51:07.507Z,48.76
2023-02-13T23:53:37.647Z,48.50
2023-02-13T23:56:05.019Z,49.51
2023-02-13T23:58:31.824Z,49.07
